createdAt,value
2019-03-28T00:02:28.169Z,20.60
2019-03-28T00:05:04.309Z,21.42
2019-03-28T00:07:33.165Z,21.57
2019-03-28T00:10:08.181Z,24.57
2019-03-28T00:12:37.064Z,20.45
2019-03-28T00:15:08.198Z,21.33
2019-03-28T00:17:43.599Z,21.00
2019-03-28T00:20:12.485Z,22.25
2019-03-28T00:22:49.842Z,20.77
2019-03-28T00:25:19.874Z,24.65
2019-03-28T00:28:02.471Z,17.77
2019-03-28T00:30:37.998Z,19.77
2019-03-28T00:33:13.773Z,22.95
2019-03-28T00:35:42.596Z,22.32
2019-03-28T00:38:11.433Z,19.20
2019-03-28T00:40:47.746Z,26.52
2019-03-28T00:43:16.629Z,21.68
2019-03-28T00:45:51.802Z,24.12
2019-03-28T00:48:20.733Z,21.73
2019-03-28T00:50:49.619Z,21.52
2019-03-28T00:53:25.648Z,23.38
2019-03-28T00:55:54.557Z,22.42
2019-03-28T00:58:29.685Z,22.25
2019-03-28T01:00:58.542Z,21.40
2019-03-28T01:03:27.381Z,19.07
2019-03-28T01:06:06.080Z,19.52
2019-03-28T01:08:34.930Z,19.85
2019-03-28T01:11:10.374Z,14.50
2019-03-28T01:13:39.239Z,17.02
2019-03-28T01:16:08.057Z,22.30
2019-03-28T01:18:44.009Z,19.40
2019-03-28T01:21:12.903Z,18.98
2019-03-28T01:23:41.801Z,21.90
2019-03-28T01:26:18.281Z,21.12
2019-03-28T01:28:54.471Z,20.77
2019-03-28T01:31:36.805Z,19.98
2019-03-28T01:34:05.636Z,19.70
2019-03-28T01:36:34.459Z,20.97
2019-03-28T01:39:11.248Z,20.68
2019-03-28T01:41:40.146Z,22.42
2019-03-28T01:44:17.279Z,22.50
2019-03-28T01:46:46.393Z,22.58
2019-03-28T01:49:15.415Z,22.17
2019-03-28T01:51:50.849Z,25.15
2019-03-28T01:54:19.615Z,23.83
2019-03-28T01:56:55.026Z,25.85
2019-03-28T01:59:24.942Z,26.12
2019-03-28T02:01:53.767Z,25.40
2019-03-28T02:04:29.320Z,26.42
2019-03-28T02:06:59.172Z,23.47
2019-03-28T02:09:35.026Z,22.42
2019-03-28T02:12:03.862Z,22.07
2019-03-28T02:14:32.838Z,26.12
2019-03-28T02:17:08.666Z,23.52
2019-03-28T02:19:37.571Z,24.92
2019-03-28T02:22:12.890Z,26.55
2019-03-28T02:24:41.752Z,26.55
2019-03-28T02:27:23.021Z,23.62
2019-03-28T02:29:47.769Z,26.33
2019-03-28T02:32:30.412Z,26.10
2019-03-28T02:35:05.774Z,27.37
2019-03-28T02:37:34.647Z,28.00
2019-03-28T02:40:04.262Z,28.12
2019-03-28T02:42:39.673Z,35.73
2019-03-28T02:45:08.904Z,35.68
2019-03-28T02:47:44.718Z,40.65
2019-03-28T02:50:13.581Z,36.93
2019-03-28T02:52:42.420Z,32.85
2019-03-28T02:55:17.593Z,40.65
2019-03-28T02:57:46.451Z,43.92
2019-03-28T03:00:22.758Z,40.70
2019-03-28T03:02:51.656Z,40.58
2019-03-28T03:05:20.496Z,37.38
2019-03-28T03:07:56.354Z,33.63
2019-03-28T03:10:25.212Z,34.73
2019-03-28T03:13:00.774Z,38.55
2019-03-28T03:15:30.098Z,38.00
2019-03-28T03:17:59.285Z,46.02
2019-03-28T03:20:35.321Z,35.83
2019-03-28T03:23:04.188Z,32.73
2019-03-28T03:25:39.614Z,32.08
2019-03-28T03:28:08.471Z,35.25
2019-03-28T03:30:57.114Z,33.88
2019-03-28T03:33:32.450Z,34.70
2019-03-28T03:36:07.634Z,33.85
2019-03-28T03:38:36.549Z,32.53
2019-03-28T03:41:05.717Z,32.78
2019-03-28T03:43:41.228Z,33.08
2019-03-28T03:46:10.048Z,35.35
2019-03-28T03:48:45.870Z,36.28
2019-03-28T03:51:14.910Z,30.62
2019-03-28T03:53:43.882Z,38.10
2019-03-28T03:56:19.997Z,41.45
2019-03-28T03:58:48.822Z,40.65
2019-03-28T04:01:25.498Z,45.40
2019-03-28T04:03:55.748Z,41.02
2019-03-28T04:06:24.828Z,44.20
2019-03-28T04:09:00.841Z,38.90
2019-03-28T04:11:29.646Z,42.75
2019-03-28T04:14:05.497Z,40.70
2019-03-28T04:16:34.354Z,44.55
2019-03-28T04:19:03.271Z,44.42
2019-03-28T04:21:38.616Z,50.67
2019-03-28T04:24:07.743Z,42.53
2019-03-28T04:26:43.873Z,56.73
2019-03-28T04:29:12.745Z,58.92
2019-03-28T04:31:54.535Z,49.70
2019-03-28T04:34:30.193Z,48.08
2019-03-28T04:36:59.041Z,48.28
2019-03-28T04:39:34.023Z,53.70
2019-03-28T04:42:03.509Z,49.42
2019-03-28T04:44:39.690Z,45.40
2019-03-28T04:47:14.164Z,60.25
2019-03-28T04:49:41.003Z,49.45
2019-03-28T04:52:16.335Z,45.55
2019-03-28T04:54:45.204Z,43.02
2019-03-28T04:57:20.820Z,39.25
2019-03-28T04:59:49.723Z,45.28
2019-03-28T05:02:18.621Z,43.28
2019-03-28T05:04:53.641Z,40.38
2019-03-28T05:07:22.470Z,45.20
2019-03-28T05:09:58.164Z,43.55
2019-03-28T05:12:27.078Z,37.95
2019-03-28T05:14:55.937Z,46.00
2019-03-28T05:17:31.846Z,37.45
2019-03-28T05:20:00.748Z,44.35
2019-03-28T05:22:35.693Z,41.85
2019-03-28T05:25:06.934Z,42.35
2019-03-28T05:27:35.816Z,42.00
2019-03-28T05:30:14.675Z,42.62
2019-03-28T05:32:49.971Z,44.45
2019-03-28T05:35:31.690Z,41.90
2019-03-28T05:38:00.617Z,42.98
2019-03-28T05:40:29.534Z,40.70
2019-03-28T05:43:04.806Z,48.05
2019-03-28T05:45:33.751Z,41.42
2019-03-28T05:48:09.379Z,46.08
2019-03-28T05:50:38.215Z,42.83
2019-03-28T05:53:07.072Z,52.75
2019-03-28T05:55:42.798Z,40.08
2019-03-28T05:58:11.641Z,38.78
2019-03-28T06:00:51.166Z,46.08
2019-03-28T06:03:18.041Z,39.83
2019-03-28T06:05:46.872Z,44.40
2019-03-28T06:08:21.982Z,43.87
2019-03-28T06:10:50.818Z,34.92
2019-03-28T06:13:26.396Z,34.27
2019-03-28T06:15:55.644Z,34.23
2019-03-28T06:18:24.467Z,36.48
2019-03-28T06:20:59.725Z,30.23
2019-03-28T06:23:28.478Z,39.60
2019-03-28T06:26:03.750Z,33.35
2019-03-28T06:28:32.587Z,32.13
2019-03-28T06:31:01.425Z,30.37
2019-03-28T06:33:38.487Z,32.58
2019-03-28T06:36:06.927Z,28.12
2019-03-28T06:38:50.228Z,27.27
2019-03-28T06:41:19.122Z,26.80
2019-03-28T06:43:54.230Z,28.45
2019-03-28T06:46:23.148Z,26.87
2019-03-28T06:48:51.946Z,28.27
2019-03-28T06:51:26.946Z,29.67
2019-03-28T06:53:57.131Z,24.67
2019-03-28T06:56:32.425Z,28.75
2019-03-28T06:59:01.274Z,26.57
2019-03-28T07:01:30.126Z,27.22
2019-03-28T07:04:05.540Z,21.77
2019-03-28T07:06:34.377Z,25.37
2019-03-28T07:09:09.569Z,22.85
2019-03-28T07:11:38.429Z,22.50
2019-03-28T07:14:07.277Z,20.77
2019-03-28T07:16:42.795Z,23.20
2019-03-28T07:19:11.653Z,25.45
2019-03-28T07:21:47.416Z,24.63
2019-03-28T07:24:16.240Z,22.95
2019-03-28T07:26:45.085Z,20.62
2019-03-28T07:29:20.912Z,19.67
2019-03-28T07:31:49.765Z,20.15
2019-03-28T07:34:31.681Z,25.17
2019-03-28T07:37:07.362Z,20.85
2019-03-28T07:39:49.935Z,20.92
2019-03-28T07:42:18.744Z,23.40
2019-03-28T07:44:47.913Z,21.50
2019-03-28T07:47:23.821Z,23.62
2019-03-28T07:49:52.721Z,21.73
2019-03-28T07:52:29.039Z,27.40
2019-03-28T07:54:57.866Z,20.40
2019-03-28T07:57:26.741Z,19.30
2019-03-28T08:00:04.534Z,18.23
2019-03-28T08:02:33.502Z,17.73
2019-03-28T08:05:09.006Z,19.87
2019-03-28T08:07:44.911Z,17.87
2019-03-28T08:10:09.207Z,16.85
2019-03-28T08:12:44.693Z,16.30
2019-03-28T08:15:14.184Z,16.20
2019-03-28T08:17:49.948Z,18.57
2019-03-28T08:23:19.142Z,13.30
2019-03-28T08:25:47.900Z,13.10
2019-03-28T08:28:16.717Z,13.70
2019-03-28T08:30:51.825Z,15.23
2019-03-28T08:33:20.679Z,14.85
2019-03-28T08:35:57.090Z,11.53
2019-03-28T08:38:27.237Z,14.90
2019-03-28T08:41:09.567Z,13.45
2019-03-28T08:43:38.460Z,13.03
2019-03-28T08:46:08.894Z,10.23
2019-03-28T08:48:44.392Z,12.00
2019-03-28T08:51:13.448Z,11.93
2019-03-28T08:53:48.729Z,11.80
2019-03-28T08:56:17.597Z,11.53
2019-03-28T08:58:46.522Z,9.80
2019-03-28T09:01:22.552Z,11.83
2019-03-28T09:04:13.647Z,12.68
2019-03-28T09:06:49.684Z,11.53
2019-03-28T09:09:21.157Z,11.08
2019-03-28T09:12:17.824Z,13.70
2019-03-28T09:17:46.372Z,9.68
2019-03-28T09:20:15.325Z,8.65
2019-03-28T09:22:57.757Z,13.70
2019-03-28T09:25:33.602Z,11.22
2019-03-28T09:28:09.531Z,9.60
2019-03-28T09:30:48.562Z,8.33
2019-03-28T09:33:11.198Z,9.53
2019-03-28T09:35:46.439Z,11.30
2019-03-28T09:38:15.553Z,9.05
2019-03-28T09:40:50.670Z,12.60
2019-03-28T09:43:19.516Z,8.35
2019-03-28T09:45:48.487Z,8.55
2019-03-28T09:51:22.553Z,9.38
2019-03-28T09:53:57.805Z,10.30
2019-03-28T09:56:33.353Z,6.97
2019-03-28T09:59:08.547Z,8.30
2019-03-28T10:01:46.234Z,11.65
2019-03-28T10:04:21.047Z,10.70
2019-03-28T10:06:49.652Z,10.93
2019-03-28T10:09:25.619Z,10.35
2019-03-28T10:12:00.757Z,10.68
2019-03-28T10:14:29.601Z,14.43
2019-03-28T10:17:05.568Z,11.08
2019-03-28T10:19:34.437Z,9.85
2019-03-28T10:22:09.815Z,9.28
2019-03-28T10:24:51.628Z,10.35
2019-03-28T10:27:20.101Z,11.12
2019-03-28T10:29:55.300Z,12.13
2019-03-28T10:32:23.805Z,10.10
2019-03-28T10:34:52.744Z,13.60
2019-03-28T10:37:27.952Z,10.25
2019-03-28T10:39:56.781Z,12.10
2019-03-28T10:42:32.560Z,9.98
2019-03-28T10:45:01.340Z,14.47
2019-03-28T10:47:30.181Z,11.28
2019-03-28T10:50:05.376Z,13.55
2019-03-28T10:52:34.137Z,9.93
2019-03-28T10:55:09.936Z,12.75
2019-03-28T10:57:38.366Z,12.53
2019-03-28T11:00:23.415Z,12.90
2019-03-28T11:02:49.033Z,15.83
2019-03-28T11:05:18.050Z,15.45
2019-03-28T11:08:00.124Z,11.48
2019-03-28T11:10:30.587Z,13.85
2019-03-28T11:12:59.630Z,15.65
2019-03-28T11:15:35.055Z,12.20
2019-03-28T11:18:03.993Z,13.48
2019-03-28T11:20:40.126Z,13.75
2019-03-28T11:23:15.968Z,11.90
2019-03-28T11:25:57.475Z,16.07
2019-03-28T11:28:26.224Z,14.60
2019-03-28T11:30:54.773Z,14.28
2019-03-28T11:33:29.525Z,14.58
2019-03-28T11:35:57.996Z,13.48
2019-03-28T11:38:32.919Z,15.30
2019-03-28T11:41:01.442Z,15.35
2019-03-28T11:43:29.989Z,14.85
2019-03-28T11:46:04.677Z,12.93
2019-03-28T11:48:33.322Z,13.98
2019-03-28T11:51:08.228Z,14.60
2019-03-28T11:53:36.724Z,14.70
2019-03-28T11:56:05.279Z,14.47
2019-03-28T11:58:40.221Z,10.53
2019-03-28T12:01:08.797Z,9.25
2019-03-28T12:03:44.181Z,10.00
2019-03-28T12:06:18.872Z,11.18
2019-03-28T12:08:47.359Z,12.07
2019-03-28T12:11:22.661Z,10.20
2019-03-28T12:13:51.171Z,13.62
2019-03-28T12:16:26.211Z,9.15
2019-03-28T12:18:54.680Z,10.78
2019-03-28T12:21:23.195Z,11.85
2019-03-28T12:23:58.570Z,11.48
2019-03-28T12:26:27.171Z,10.35
2019-03-28T12:29:05.707Z,7.83
2019-03-28T12:31:33.428Z,10.15
2019-03-28T12:34:02.123Z,10.35
2019-03-28T12:36:37.728Z,11.50
2019-03-28T12:39:06.532Z,10.65
2019-03-28T12:41:41.164Z,12.07
2019-03-28T12:44:09.657Z,11.93
2019-03-28T12:46:38.140Z,11.08
2019-03-28T12:49:13.412Z,10.48
2019-03-28T12:51:43.765Z,10.48
2019-03-28T12:54:19.038Z,10.85
2019-03-28T12:56:47.543Z,12.98
2019-03-28T12:59:15.975Z,9.95
2019-03-28T13:01:51.192Z,11.80
2019-03-28T13:04:19.674Z,9.28
2019-03-28T13:06:54.825Z,14.50
2019-03-28T13:09:29.363Z,10.78
2019-03-28T13:11:57.866Z,12.63
2019-03-28T13:14:33.121Z,13.93
2019-03-28T13:17:01.617Z,10.65
2019-03-28T13:19:37.109Z,13.55
2019-03-28T13:22:05.606Z,11.68
2019-03-28T13:24:40.168Z,11.75
2019-03-28T13:27:21.811Z,10.23
2019-03-28T13:29:50.307Z,9.75
2019-03-28T13:32:26.022Z,12.28
2019-03-28T13:34:54.470Z,11.88
2019-03-28T13:37:22.961Z,9.50
2019-03-28T13:39:59.343Z,9.63
2019-03-28T13:42:28.067Z,10.43
2019-03-28T13:45:02.917Z,8.40
2019-03-28T13:47:31.449Z,7.78
2019-03-28T13:49:59.877Z,10.13
2019-03-28T13:52:34.892Z,9.78
2019-03-28T13:55:03.407Z,9.43
2019-03-28T13:57:38.742Z,8.78
2019-03-28T14:00:07.913Z,9.93
2019-03-28T14:02:36.491Z,10.28
2019-03-28T14:05:13.296Z,10.25
2019-03-28T14:07:41.859Z,12.53
2019-03-28T14:10:23.413Z,8.43
2019-03-28T14:12:58.272Z,9.00
2019-03-28T14:15:26.746Z,8.88
2019-03-28T14:17:55.260Z,6.75
2019-03-28T14:20:30.872Z,11.33
2019-03-28T14:22:59.338Z,7.75
2019-03-28T14:25:34.364Z,6.62
2019-03-28T14:28:09.363Z,6.05
2019-03-28T14:30:51.697Z,8.08
2019-03-28T14:33:20.189Z,10.23
2019-03-28T14:35:48.745Z,6.55
2019-03-28T14:38:23.757Z,7.25
2019-03-28T14:40:52.289Z,6.03
2019-03-28T14:43:27.039Z,6.70
2019-03-28T14:45:55.516Z,9.40
2019-03-28T14:48:24.006Z,8.10
2019-03-28T14:50:58.997Z,6.10
2019-03-28T14:53:28.713Z,8.23
2019-03-28T14:56:04.644Z,6.72
2019-03-28T14:58:33.444Z,11.00
2019-03-28T15:01:01.912Z,6.85
2019-03-28T15:03:37.501Z,10.48
2019-03-28T15:06:06.078Z,8.03
2019-03-28T15:08:41.025Z,8.25
2019-03-28T15:11:09.439Z,10.55
2019-03-28T15:13:40.373Z,7.90
2019-03-28T15:16:15.286Z,8.13
2019-03-28T15:18:43.756Z,9.03
2019-03-28T15:21:19.013Z,7.17
2019-03-28T15:23:47.479Z,6.92
2019-03-28T15:26:16.507Z,10.50
2019-03-28T15:28:51.712Z,8.65
2019-03-28T15:31:21.622Z,8.23
2019-03-28T15:34:04.746Z,9.33
2019-03-28T15:36:33.599Z,7.05
2019-03-28T15:39:02.500Z,8.90
2019-03-28T15:41:38.184Z,11.00
2019-03-28T15:44:07.010Z,8.38
2019-03-28T15:46:43.081Z,7.65
2019-03-28T15:49:11.937Z,11.63
2019-03-28T15:51:40.841Z,9.05
2019-03-28T15:54:16.177Z,12.13
2019-03-28T15:56:45.032Z,8.18
2019-03-28T15:59:20.401Z,9.78
2019-03-28T16:01:49.250Z,9.65
2019-03-28T16:04:18.103Z,9.65
2019-03-28T16:06:53.006Z,9.03
2019-03-28T16:09:21.902Z,8.05
2019-03-28T16:12:02.803Z,10.28
2019-03-28T16:14:28.312Z,10.82
2019-03-28T16:16:57.100Z,12.18
2019-03-28T16:19:35.092Z,12.68
2019-03-28T16:22:05.202Z,9.53
2019-03-28T16:24:40.252Z,11.33
2019-03-28T16:27:09.087Z,10.23
2019-03-28T16:29:44.866Z,13.30
2019-03-28T16:32:20.458Z,11.95
2019-03-28T16:34:49.269Z,12.25
2019-03-28T16:37:31.494Z,9.83
2019-03-28T16:40:00.621Z,11.22
2019-03-28T16:42:29.479Z,15.30
2019-03-28T16:45:05.049Z,13.93
2019-03-28T16:47:33.969Z,16.12
2019-03-28T16:50:09.372Z,14.47
2019-03-28T16:52:38.237Z,15.70
2019-03-28T16:55:07.197Z,20.72
2019-03-28T16:57:43.332Z,19.95
2019-03-28T17:00:14.095Z,14.50
2019-03-28T17:02:49.536Z,17.35
2019-03-28T17:05:18.358Z,17.87
2019-03-28T17:07:48.188Z,17.80
2019-03-28T17:10:47.696Z,16.57
2019-03-28T17:13:16.828Z,18.30
2019-03-28T17:15:52.696Z,17.98
2019-03-28T17:18:21.550Z,16.93
2019-03-28T17:20:50.508Z,21.42
2019-03-28T17:23:25.775Z,18.25
2019-03-28T17:25:54.721Z,15.15
2019-03-28T17:28:37.128Z,16.65
2019-03-28T17:31:12.417Z,16.05
2019-03-28T17:33:48.305Z,17.60
2019-03-28T17:36:17.174Z,21.73
2019-03-28T17:38:46.018Z,16.15
2019-03-28T17:41:21.291Z,16.65
2019-03-28T17:43:50.124Z,17.05
2019-03-28T17:46:25.150Z,17.32
2019-03-28T17:48:57.400Z,19.55
2019-03-28T17:51:24.881Z,18.90
2019-03-28T17:54:00.041Z,14.80
2019-03-28T17:56:28.880Z,17.05
2019-03-28T17:59:04.045Z,17.07
2019-03-28T18:01:33.046Z,18.17
2019-03-28T18:04:23.682Z,22.22
2019-03-28T18:07:07.436Z,16.20
2019-03-28T18:09:46.608Z,14.68
2019-03-28T18:12:47.278Z,16.55
2019-03-28T18:15:17.599Z,20.55
2019-03-28T18:17:46.458Z,18.40
2019-03-28T18:20:22.348Z,16.37
2019-03-28T18:22:51.214Z,16.48
2019-03-28T18:25:30.026Z,18.65
2019-03-28T18:27:57.398Z,18.55
2019-03-28T18:30:39.357Z,18.52
2019-03-28T18:33:14.620Z,16.48
2019-03-28T18:35:43.491Z,19.75
2019-03-28T18:38:20.106Z,18.20
2019-03-28T18:40:49.145Z,17.62
2019-03-28T18:43:25.773Z,20.25
2019-03-28T18:45:54.707Z,18.55
2019-03-28T18:48:29.591Z,19.42
2019-03-28T18:51:01.146Z,16.57
2019-03-28T18:53:30.129Z,21.35
2019-03-28T18:56:05.596Z,16.37
2019-03-28T18:58:34.501Z,19.50
2019-03-28T19:01:03.483Z,16.60
2019-03-28T19:03:39.288Z,19.60
2019-03-28T19:06:08.145Z,21.70
2019-03-28T19:08:43.591Z,16.00
2019-03-28T19:11:12.473Z,15.65
2019-03-28T19:13:50.271Z,19.32
2019-03-28T19:16:25.717Z,16.70
2019-03-28T19:18:54.612Z,20.62
2019-03-28T19:21:30.432Z,13.90
2019-03-28T19:23:59.254Z,16.17
2019-03-28T19:26:28.182Z,18.05
2019-03-28T19:29:03.193Z,16.25
2019-03-28T19:31:38.810Z,18.00
2019-03-28T19:34:21.420Z,18.30
2019-03-28T19:36:51.080Z,17.27
2019-03-28T19:39:36.629Z,16.65
2019-03-28T19:42:05.681Z,16.52
2019-03-28T19:44:34.940Z,15.58
2019-03-28T19:47:09.933Z,14.07
2019-03-28T19:49:38.806Z,16.62
2019-03-28T19:52:14.290Z,15.83
2019-03-28T19:54:43.185Z,18.60
2019-03-28T19:57:13.089Z,19.05
2019-03-28T19:59:48.332Z,16.17
2019-03-28T20:02:17.205Z,18.45
2019-03-28T20:04:52.445Z,16.70
2019-03-28T20:07:22.241Z,17.35
2019-03-28T20:09:51.763Z,14.80
2019-03-28T20:12:27.301Z,17.87
2019-03-28T20:14:56.158Z,20.50
2019-03-28T20:17:31.912Z,16.50
2019-03-28T20:20:00.756Z,13.72
2019-03-28T20:22:30.772Z,13.53
2019-03-28T20:25:07.025Z,20.50
2019-03-28T20:27:36.208Z,20.35
2019-03-28T20:30:13.614Z,18.05
2019-03-28T20:32:48.574Z,16.77
2019-03-28T20:35:30.753Z,16.77
2019-03-28T20:37:59.606Z,15.68
2019-03-28T20:40:28.440Z,18.00
2019-03-28T20:43:03.724Z,22.22
2019-03-28T20:45:32.601Z,18.17
2019-03-28T20:48:08.227Z,20.70
2019-03-28T20:50:37.089Z,14.00
2019-03-28T20:53:06.021Z,19.60
2019-03-28T20:55:41.316Z,16.23
2019-03-28T20:58:10.172Z,20.55
2019-03-28T21:00:54.380Z,21.17
2019-03-28T21:03:23.231Z,18.00
2019-03-28T21:05:52.067Z,20.25
2019-03-28T21:08:28.001Z,22.75
2019-03-28T21:10:56.869Z,17.25
2019-03-28T21:13:31.933Z,19.37
2019-03-28T21:16:00.766Z,16.05
2019-03-28T21:18:29.617Z,16.27
2019-03-28T21:21:05.145Z,18.23
2019-03-28T21:23:34.056Z,17.40
2019-03-28T21:26:09.771Z,17.42
2019-03-28T21:28:47.045Z,16.82
2019-03-28T21:31:09.109Z,16.37
2019-03-28T21:33:44.092Z,18.40
2019-03-28T21:36:12.912Z,17.05
2019-03-28T21:38:55.107Z,21.33
2019-03-28T21:41:23.962Z,20.25
2019-03-28T21:43:52.760Z,18.12
2019-03-28T21:46:28.670Z,20.82
2019-03-28T21:48:57.513Z,15.83
2019-03-28T21:51:33.524Z,22.52
2019-03-28T21:54:04.871Z,19.10
2019-03-28T21:56:32.880Z,16.62
2019-03-28T21:59:08.473Z,17.50
2019-03-28T22:01:37.310Z,18.15
2019-03-28T22:04:12.689Z,20.32
2019-03-28T22:06:43.077Z,22.48
2019-03-28T22:09:11.991Z,20.97
2019-03-28T22:11:47.609Z,20.82
2019-03-28T22:14:23.187Z,22.15
2019-03-28T22:16:59.188Z,21.25
2019-03-28T22:19:28.035Z,18.75
2019-03-28T22:21:56.873Z,23.27
2019-03-28T22:24:32.706Z,18.67
2019-03-28T22:27:01.668Z,19.32
2019-03-28T22:29:37.438Z,21.62
2019-03-28T22:32:06.258Z,19.15
2019-03-28T22:34:48.962Z,21.12
2019-03-28T22:37:24.270Z,19.40
2019-03-28T22:39:53.099Z,19.02
2019-03-28T22:42:28.729Z,16.97
2019-03-28T22:44:57.587Z,17.80
2019-03-28T22:47:35.657Z,19.48
2019-03-28T22:50:04.086Z,22.62
2019-03-28T22:52:32.928Z,18.82
2019-03-28T22:55:08.908Z,17.77
2019-03-28T22:57:37.720Z,20.55
2019-03-28T23:00:19.690Z,19.15
2019-03-28T23:02:48.517Z,19.98
2019-03-28T23:05:24.729Z,20.23
2019-03-28T23:07:53.649Z,19.55
2019-03-28T23:10:22.425Z,21.15
2019-03-28T23:12:58.280Z,20.20
2019-03-28T23:15:33.673Z,18.50
2019-03-28T23:18:08.604Z,16.57
2019-03-28T23:20:37.470Z,22.02
2019-03-28T23:23:06.304Z,22.95
2019-03-28T23:25:41.901Z,20.57
2019-03-28T23:28:10.728Z,16.25
2019-03-28T23:30:46.131Z,21.15
2019-03-28T23:33:21.410Z,16.10
2019-03-28T23:36:03.688Z,16.80
2019-03-28T23:38:32.549Z,18.37
2019-03-28T23:41:01.481Z,18.00
2019-03-28T23:43:37.522Z,15.90
2019-03-28T23:46:06.348Z,20.65
2019-03-28T23:48:41.668Z,17.70
2019-03-28T23:51:10.531Z,22.75
2019-03-28T23:53:39.385Z,19.80
2019-03-28T23:56:14.769Z,18.10
2019-03-28T23:58:43.588Z,20.85
